Wrangell, AK

11:13 PM AKDT on May 03, 2015 (GMT -0800)
Wrangell | | Change Station
CLOSE
Current Station
Airport
Location: Wrangell,
Elevation: 43 ft
Nearby Weather Stations
Active Advisory: Frost Advisory

Elev 43 ft 56.48 °N, 132.37 °W | Updated 17 minutes ago

Scattered Clouds
Scattered Clouds
43 °F
Feels Like 43 °F
N
0
Wind Variable Wind from North

Today
High -- | Low -- °F
--% Chance of Precip.
Yesterday
High -- | Low -- °F
Precip. -- in
4:59 AM 8:34 PM
Full, 100% visible
Pressure 29.92 in
Visibility 10.0 miles
Clouds Scattered Clouds 12000 ft
Dew Point 34 °F
Humidity 70%
Rainfall 0.00 in
Snow Depth Not available.
UV 0 out of 12
Pollen Not available.
Air Quality Not available.
Flu Activity Sporadic
METAR PAWG 040656Z 00000KT 10SM SCT120 06/01 A2992 RMK AO1 WEA: NONE (MCQ)

More Conditions Fewer Conditions

Pressure 29.92 in
Visibility 10.0 miles
Clouds Scattered Clouds 12000 ft
Dew Point 34 °F
Humidity 70%
Rainfall 0.00 in
Snow Depth Not available.
UV 0 out of 12
Pollen Not available.
Air Quality Not available.
Flu Activity Sporadic
METAR PAWG 040656Z 00000KT 10SM SCT120 06/01 A2992 RMK AO1 WEA: NONE (MCQ)

More Conditions Fewer Conditions

10-Day Weather Forecast

Almanac

Astronomy

May. 03, 2015 Rise Set
Actual Time
Civil Twilight
Nautical Twilight
Astronomical Twilight
Moon
Length of Visible Light
Length of Day
Tomorrow will be .
, % of the Moon is Illuminated

Today's Extremes

State Highs State Lows

Community

WunderPhotos

Upload Photos

1,818,543 photos uploaded!

WunderBlogs® & News

Nearby

Air Quality

  Air Quality AQ Index Pollutant
Not available.

Snow Depth

Station Depth Elevation

Earthquake Activity

City Distance Mag. Time & Date
Minimum magnitude displayed is 2.5.

Coastal Water Temperatures

Place Temperature

Stations

Nearby Weather Stations

Station Location Temp. Windchill Dew Point Humidity Wind Precip. Elev Updated Type
                   
Frost Advisory
Statement as of 3:42 PM AKDT on May 03, 2015

... Frost advisory in effect from 1 am to 8 am akdt Monday...

The National Weather Service in Juneau has issued a frost
advisory... which is in effect from 1 am to 8 am akdt Monday.

* Location... wind sheltered interior valleys under mostly clear skies.

* Temperatures... 28 to 36 degrees.

* Timing... temperatures will fall quickly after sunset with
minimums occurring around 5 am. As the frost melts after sunrise
expect patchy fog to develop.

* Impacts... frost can develop at temperatures 35 and below. This
can be damaging to sensitive plants.

Precautionary/preparedness actions...

An advisory means that frost is already occurring or imminent.

Frost advisories are issued during the growing season so that
sensitive plants can be covered or brought inside before damage
occurs.

Plants subject to damage from frost should be given the
appropriate protection.

This statement will be updated by midnight akdt or sooner if
conditions warrant.



Ferrin